createdAt,value
2023-03-25T00:01:09.066Z,84.28
2023-03-25T00:03:42.004Z,84.19
2023-03-25T00:06:10.788Z,83.87
2023-03-25T00:08:37.731Z,84.08
2023-03-25T00:11:05.829Z,84.02
2023-03-25T00:13:33.027Z,84.63
2023-03-25T00:16:00.114Z,84.67
2023-03-25T00:18:33.703Z,84.59
2023-03-25T00:21:05.426Z,85.12
2023-03-25T00:23:32.753Z,84.44
2023-03-25T00:26:00.327Z,85.20
2023-03-25T00:28:33.511Z,84.25
2023-03-25T00:31:07.120Z,84.45
2023-03-25T00:33:35.325Z,84.63
2023-03-25T00:36:04.484Z,84.54
2023-03-25T00:38:34.117Z,85.04
2023-03-25T00:41:17.560Z,84.81
2023-03-25T00:43:44.970Z,85.61
2023-03-25T00:46:11.477Z,84.67
2023-03-25T00:48:38.061Z,85.01
2023-03-25T00:51:07.171Z,85.65
2023-03-25T00:53:34.900Z,85.50
2023-03-25T00:56:04.746Z,86.40
2023-03-25T00:58:31.507Z,86.22
2023-03-25T01:00:58.196Z,86.40
2023-03-25T01:03:28.981Z,86.32
2023-03-25T01:05:57.860Z,86.05
2023-03-25T01:08:25.192Z,86.61
2023-03-25T01:10:54.042Z,86.56
2023-03-25T01:13:21.590Z,86.34
2023-03-25T01:15:50.723Z,86.43
2023-03-25T01:18:17.859Z,85.19
2023-03-25T01:20:44.406Z,86.46
2023-03-25T01:23:11.135Z,85.55
2023-03-25T01:25:38.088Z,85.19
2023-03-25T01:28:05.154Z,85.03
2023-03-25T01:30:32.273Z,84.10
2023-03-25T01:32:58.960Z,84.53
2023-03-25T01:35:25.497Z,84.19
2023-03-25T01:37:54.365Z,83.76
2023-03-25T01:40:23.410Z,84.18
2023-03-25T01:42:50.526Z,84.55
2023-03-25T01:45:21.990Z,84.21
2023-03-25T01:47:54.900Z,84.41
2023-03-25T01:50:22.641Z,84.89
2023-03-25T01:52:51.968Z,85.49
2023-03-25T01:55:20.360Z,86.11
2023-03-25T01:57:48.485Z,86.62
2023-03-25T02:00:16.497Z,88.17
2023-03-25T02:02:43.510Z,88.85
2023-03-25T02:05:19.376Z,89.14
2023-03-25T02:07:48.931Z,90.31
2023-03-25T02:10:17.692Z,92.10
2023-03-25T02:12:45.873Z,92.19
2023-03-25T02:15:16.359Z,91.16
2023-03-25T02:17:58.848Z,91.68
2023-03-25T02:21:03.335Z,92.45
2023-03-25T02:23:41.778Z,92.46
2023-03-25T02:26:50.093Z,92.49
2023-03-25T02:29:36.934Z,93.33
2023-03-25T02:32:27.120Z,92.86
2023-03-25T02:35:00.002Z,93.51
2023-03-25T02:38:01.910Z,93.42
2023-03-25T02:40:44.141Z,93.11
2023-03-25T02:43:18.660Z,93.46
2023-03-25T02:45:51.389Z,92.87
2023-03-25T02:48:36.622Z,91.91
2023-03-25T02:51:12.125Z,91.58
2023-03-25T02:53:41.534Z,91.46
2023-03-25T02:56:12.422Z,90.25
2023-03-25T02:58:40.312Z,89.38
2023-03-25T03:01:09.965Z,89.94
2023-03-25T03:03:37.248Z,89.64
2023-03-25T03:06:06.650Z,88.60
2023-03-25T03:08:49.385Z,88.23
2023-03-25T03:11:28.056Z,87.79
2023-03-25T03:14:18.339Z,87.85
2023-03-25T03:17:03.594Z,87.85
2023-03-25T03:19:46.557Z,87.85
2023-03-25T03:22:27.120Z,87.87
2023-03-25T03:25:01.939Z,88.27
2023-03-25T03:27:54.083Z,88.65
2023-03-25T03:30:38.289Z,87.88
2023-03-25T03:33:16.616Z,87.52
2023-03-25T03:35:50.499Z,87.54
2023-03-25T03:38:21.396Z,87.03
2023-03-25T03:40:55.774Z,87.39
2023-03-25T03:43:31.509Z,87.04
2023-03-25T03:46:06.967Z,86.66
2023-03-25T03:48:40.226Z,86.49
2023-03-25T03:51:12.161Z,85.60
2023-03-25T03:53:47.640Z,85.32
2023-03-25T03:56:25.896Z,85.29
2023-03-25T03:58:58.451Z,85.09
2023-03-25T04:01:54.027Z,86.34
2023-03-25T04:04:29.636Z,86.85
2023-03-25T04:07:10.532Z,87.47
2023-03-25T04:09:55.082Z,87.51
2023-03-25T04:12:26.158Z,87.73
2023-03-25T04:14:54.433Z,87.85
2023-03-25T04:17:21.950Z,87.71
2023-03-25T04:19:49.012Z,85.88
2023-03-25T04:22:19.695Z,85.00
2023-03-25T04:24:49.731Z,85.40
2023-03-25T04:27:16.900Z,84.37
2023-03-25T04:29:47.844Z,83.71
2023-03-25T04:32:15.113Z,83.89
2023-03-25T04:34:41.988Z,83.68
2023-03-25T04:37:08.400Z,83.99
2023-03-25T04:39:34.968Z,83.53
2023-03-25T04:42:01.825Z,83.92
2023-03-25T04:44:33.308Z,83.92
2023-03-25T04:47:02.558Z,84.23
2023-03-25T04:49:28.971Z,83.73
2023-03-25T04:51:56.854Z,83.72
2023-03-25T04:54:23.850Z,83.84
2023-03-25T04:56:52.074Z,83.87
2023-03-25T04:59:21.302Z,84.90
2023-03-25T05:01:48.073Z,85.03
2023-03-25T05:04:17.645Z,85.03
2023-03-25T05:06:47.345Z,84.79
2023-03-25T05:09:19.911Z,85.55
2023-03-25T05:11:46.578Z,85.54
2023-03-25T05:14:15.344Z,86.35
2023-03-25T05:16:42.565Z,85.90
2023-03-25T05:19:09.381Z,85.55
2023-03-25T05:21:38.060Z,85.89
2023-03-25T05:24:08.318Z,85.78
2023-03-25T05:26:35.190Z,85.90
2023-03-25T05:29:05.185Z,86.10
2023-03-25T05:31:31.900Z,85.98
2023-03-25T05:33:58.505Z,85.44
2023-03-25T05:36:25.180Z,85.61
2023-03-25T05:38:55.654Z,85.97
2023-03-25T05:41:32.306Z,86.06
2023-03-25T05:44:00.439Z,86.29
2023-03-25T05:46:29.594Z,86.49
2023-03-25T05:48:57.436Z,86.74
2023-03-25T05:51:25.778Z,88.02
2023-03-25T05:53:53.150Z,88.39
2023-03-25T05:56:21.942Z,88.43
2023-03-25T05:58:50.372Z,88.19
2023-03-25T06:01:31.771Z,87.58
2023-03-25T06:04:03.484Z,87.89
2023-03-25T06:06:33.805Z,88.08
2023-03-25T06:09:00.289Z,87.49
2023-03-25T06:11:26.718Z,87.14
2023-03-25T06:13:53.278Z,87.28
2023-03-25T06:16:28.032Z,86.42
2023-03-25T06:19:00.113Z,86.00
2023-03-25T06:21:32.890Z,86.07
2023-03-25T06:24:00.476Z,85.39
2023-03-25T06:26:27.512Z,85.36
2023-03-25T06:28:54.676Z,84.67
2023-03-25T06:31:26.570Z,85.56
2023-03-25T06:33:55.986Z,85.03
2023-03-25T06:36:25.707Z,84.96
2023-03-25T06:38:53.563Z,84.37
2023-03-25T06:41:21.886Z,83.72
2023-03-25T06:43:56.502Z,83.27
2023-03-25T06:46:41.751Z,83.80
2023-03-25T06:49:13.507Z,83.19
2023-03-25T06:51:39.920Z,83.49
2023-03-25T06:54:06.938Z,82.71
2023-03-25T06:56:33.709Z,82.91
2023-03-25T06:59:00.431Z,82.80
2023-03-25T07:01:27.514Z,82.30
2023-03-25T07:03:53.908Z,82.00
2023-03-25T07:06:22.439Z,82.15
2023-03-25T07:08:49.004Z,81.78
2023-03-25T07:11:18.515Z,80.62
2023-03-25T07:13:45.066Z,80.54
2023-03-25T07:16:11.663Z,80.81
2023-03-25T07:18:41.221Z,80.34
2023-03-25T07:21:07.746Z,79.96
2023-03-25T07:23:34.117Z,79.86
2023-03-25T07:26:00.610Z,79.44
2023-03-25T07:28:28.539Z,79.42
2023-03-25T07:30:54.909Z,79.60
2023-03-25T07:33:21.627Z,80.63
2023-03-25T07:35:48.199Z,79.63
2023-03-25T07:38:14.743Z,80.80
2023-03-25T07:40:41.160Z,80.87
2023-03-25T07:43:07.533Z,81.74
2023-03-25T07:45:44.370Z,81.45
2023-03-25T07:48:14.483Z,81.41
2023-03-25T07:50:41.126Z,81.50
2023-03-25T07:53:07.691Z,81.40
2023-03-25T07:55:34.202Z,81.19
2023-03-25T07:58:01.904Z,82.34
2023-03-25T08:00:31.815Z,80.75
2023-03-25T08:02:58.379Z,81.35
2023-03-25T08:05:24.817Z,81.46
2023-03-25T08:07:52.698Z,81.27
2023-03-25T08:10:19.726Z,81.96
2023-03-25T08:12:46.214Z,81.51
2023-03-25T08:15:13.449Z,80.76
2023-03-25T08:17:40.577Z,81.68
2023-03-25T08:20:07.472Z,81.33
2023-03-25T08:22:34.008Z,80.20
2023-03-25T08:25:00.610Z,80.39
2023-03-25T08:27:28.674Z,80.07
2023-03-25T08:29:57.410Z,79.56
2023-03-25T08:32:24.888Z,79.55
2023-03-25T08:34:51.616Z,79.14
2023-03-25T08:37:18.548Z,78.78
2023-03-25T08:39:45.873Z,78.41
2023-03-25T08:42:13.440Z,79.10
2023-03-25T08:44:40.105Z,78.59
2023-03-25T08:47:06.493Z,78.98
2023-03-25T08:49:32.938Z,78.55
2023-03-25T08:52:00.602Z,80.35
2023-03-25T08:54:28.369Z,81.97
2023-03-25T08:56:55.124Z,82.73
2023-03-25T08:59:21.850Z,84.13
2023-03-25T09:01:48.505Z,84.99
2023-03-25T09:04:15.317Z,87.71
2023-03-25T09:06:47.862Z,88.53
2023-03-25T09:09:16.554Z,89.12
2023-03-25T09:11:43.013Z,88.76
2023-03-25T09:14:09.630Z,89.24
2023-03-25T09:16:36.032Z,88.68
2023-03-25T09:19:03.174Z,87.41
2023-03-25T09:21:29.654Z,87.45
2023-03-25T09:23:56.081Z,86.91
2023-03-25T09:26:22.563Z,87.85
2023-03-25T09:28:49.469Z,88.03
2023-03-25T09:31:15.940Z,88.69
2023-03-25T09:33:42.363Z,86.54
2023-03-25T09:36:08.949Z,86.33
2023-03-25T09:38:35.409Z,84.19
2023-03-25T09:41:20.685Z,83.81
2023-03-25T09:44:07.128Z,83.24
2023-03-25T09:46:33.713Z,81.35
2023-03-25T09:49:00.992Z,79.73
2023-03-25T09:51:36.444Z,80.00
2023-03-25T09:54:16.156Z,78.27
2023-03-25T09:56:44.018Z,77.52
2023-03-25T09:59:15.939Z,76.10
2023-03-25T10:01:55.804Z,75.30
2023-03-25T10:04:53.192Z,72.90
2023-03-25T10:07:37.100Z,71.80
2023-03-25T10:10:27.133Z,71.17
2023-03-25T10:13:11.706Z,71.56
2023-03-25T10:15:56.360Z,70.47
2023-03-25T10:18:46.967Z,69.99
2023-03-25T10:21:25.512Z,69.67
2023-03-25T10:24:18.412Z,68.77
2023-03-25T10:26:54.767Z,68.81
2023-03-25T10:29:28.183Z,67.34
2023-03-25T10:31:59.258Z,67.13
2023-03-25T10:34:49.802Z,67.98
2023-03-25T10:37:24.909Z,67.84
2023-03-25T10:39:51.734Z,67.19
2023-03-25T10:42:34.856Z,66.62
2023-03-25T10:45:03.317Z,66.29
2023-03-25T10:47:36.841Z,66.67
2023-03-25T10:50:04.563Z,66.83
2023-03-25T10:52:31.135Z,66.27
2023-03-25T10:54:58.453Z,66.47
2023-03-25T10:57:31.084Z,66.80
2023-03-25T11:00:18.409Z,66.21
2023-03-25T11:02:49.194Z,64.49
2023-03-25T11:05:24.724Z,64.92
2023-03-25T11:07:56.135Z,65.89
2023-03-25T11:10:25.501Z,65.80
2023-03-25T11:12:53.334Z,65.33
2023-03-25T11:15:26.464Z,64.74
2023-03-25T11:18:00.505Z,64.98
2023-03-25T11:20:37.794Z,65.03
2023-03-25T11:23:32.725Z,65.21
2023-03-25T11:26:11.371Z,67.34
2023-03-25T11:28:41.578Z,67.56
2023-03-25T11:31:16.066Z,68.16
2023-03-25T11:33:45.395Z,68.12
2023-03-25T11:36:17.721Z,69.93
2023-03-25T11:38:50.904Z,72.85
2023-03-25T11:41:17.576Z,72.60
2023-03-25T11:43:48.761Z,72.53
2023-03-25T11:46:18.749Z,71.67
2023-03-25T11:48:46.692Z,72.11
2023-03-25T11:51:25.383Z,72.41
2023-03-25T11:54:00.630Z,73.85
2023-03-25T11:56:40.262Z,73.77
2023-03-25T11:59:21.672Z,72.48
2023-03-25T12:01:49.826Z,71.55
2023-03-25T12:04:24.886Z,71.43
2023-03-25T12:07:01.839Z,71.38
2023-03-25T12:09:31.911Z,71.92
2023-03-25T12:12:04.630Z,72.31
2023-03-25T12:14:50.735Z,72.38
2023-03-25T12:17:57.518Z,72.16
2023-03-25T12:20:33.940Z,70.87
2023-03-25T12:23:10.951Z,69.18
2023-03-25T12:25:46.175Z,68.52
2023-03-25T12:28:21.907Z,68.74
2023-03-25T12:30:59.799Z,69.31
2023-03-25T12:34:01.845Z,68.83
2023-03-25T12:37:06.258Z,67.45
2023-03-25T12:39:43.743Z,67.63
2023-03-25T12:42:25.963Z,67.63
2023-03-25T12:45:04.679Z,68.14
2023-03-25T12:47:39.414Z,68.21
2023-03-25T12:50:26.740Z,67.77
2023-03-25T12:53:04.281Z,67.50
2023-03-25T12:55:55.743Z,67.41
2023-03-25T12:58:48.264Z,66.92
2023-03-25T13:01:42.306Z,67.51
2023-03-25T13:04:11.491Z,67.55
2023-03-25T13:06:47.869Z,67.00
2023-03-25T13:09:31.863Z,69.01
2023-03-25T13:12:03.750Z,70.70
2023-03-25T13:14:36.706Z,79.02
2023-03-25T13:17:08.990Z,82.89
2023-03-25T13:19:41.123Z,85.02
2023-03-25T13:22:19.115Z,82.81
2023-03-25T13:24:52.682Z,82.71
2023-03-25T13:27:19.525Z,82.67
2023-03-25T13:29:51.764Z,82.08
2023-03-25T13:32:25.019Z,82.56
2023-03-25T13:35:15.182Z,80.89
2023-03-25T13:37:47.077Z,81.36
2023-03-25T13:40:28.325Z,81.08
2023-03-25T13:43:01.882Z,81.93
2023-03-25T13:45:35.155Z,83.53
2023-03-25T13:48:11.863Z,84.00
2023-03-25T13:50:38.571Z,84.83
2023-03-25T13:53:27.609Z,85.66
2023-03-25T13:56:06.564Z,88.59
2023-03-25T13:58:46.708Z,91.26
2023-03-25T14:01:39.235Z,92.92
2023-03-25T14:04:26.353Z,94.28
2023-03-25T14:07:11.916Z,95.12
2023-03-25T14:09:59.847Z,96.81
2023-03-25T14:12:33.104Z,97.16
2023-03-25T14:15:04.961Z,96.59
2023-03-25T14:17:36.128Z,96.69
2023-03-25T14:20:08.544Z,97.16
2023-03-25T14:22:43.652Z,97.17
2023-03-25T14:25:27.319Z,96.86
2023-03-25T14:27:54.826Z,95.31
2023-03-25T14:30:29.966Z,95.33
2023-03-25T14:32:57.062Z,94.27
2023-03-25T14:35:33.076Z,92.09
2023-03-25T14:38:05.764Z,90.29
2023-03-25T14:40:58.959Z,90.35
2023-03-25T14:43:53.026Z,90.57
2023-03-25T14:46:23.878Z,90.91
2023-03-25T14:49:09.477Z,90.84
2023-03-25T14:51:41.035Z,92.99
2023-03-25T14:54:22.942Z,93.76
2023-03-25T14:57:16.138Z,94.09
2023-03-25T14:59:48.548Z,97.03
2023-03-25T15:02:33.615Z,97.46
2023-03-25T15:05:04.659Z,98.75
2023-03-25T15:07:41.926Z,99.39
2023-03-25T15:10:18.887Z,100.00
2023-03-25T15:12:52.345Z,99.49
2023-03-25T15:15:32.460Z,99.04
2023-03-25T15:18:00.322Z,100.00
2023-03-25T15:20:29.128Z,100.00
2023-03-25T15:23:33.641Z,100.00
2023-03-25T15:26:02.041Z,99.84
2023-03-25T15:28:43.655Z,99.48
2023-03-25T15:31:41.251Z,99.20
2023-03-25T15:34:30.248Z,99.43
2023-03-25T15:37:45.679Z,98.64
2023-03-25T15:40:29.893Z,97.86
2023-03-25T15:43:08.505Z,98.90
2023-03-25T15:45:38.027Z,97.05
2023-03-25T15:48:41.776Z,97.31
2023-03-25T15:51:24.570Z,96.94
2023-03-25T15:54:21.985Z,97.96
2023-03-25T15:56:50.374Z,98.74
2023-03-25T15:59:33.394Z,98.52
2023-03-25T16:02:03.269Z,97.86
2023-03-25T16:04:37.783Z,98.11
2023-03-25T16:07:08.951Z,93.49
2023-03-25T16:09:41.555Z,94.17
2023-03-25T16:12:10.229Z,93.85
2023-03-25T16:14:39.348Z,94.66
2023-03-25T16:17:07.506Z,95.17
2023-03-25T16:19:45.224Z,95.40
2023-03-25T16:22:19.566Z,96.78
2023-03-25T16:24:48.520Z,97.76
2023-03-25T16:27:23.291Z,97.62
2023-03-25T16:29:53.717Z,98.08
2023-03-25T16:32:26.031Z,98.08
2023-03-25T16:34:53.980Z,98.39
2023-03-25T16:37:23.436Z,98.00
2023-03-25T16:39:52.398Z,97.85
2023-03-25T16:42:35.537Z,96.96
2023-03-25T16:45:03.429Z,94.31
2023-03-25T16:47:33.929Z,94.62
2023-03-25T16:50:02.688Z,97.45
2023-03-25T16:52:33.551Z,98.74
2023-03-25T16:55:04.792Z,99.49
2023-03-25T16:57:38.671Z,100.00
2023-03-25T17:00:17.576Z,100.00
2023-03-25T17:02:45.849Z,99.25
2023-03-25T17:05:31.192Z,98.86
2023-03-25T17:08:01.838Z,96.81
2023-03-25T17:10:31.648Z,96.36
2023-03-25T17:13:09.437Z,95.22
2023-03-25T17:15:37.105Z,93.92
2023-03-25T17:18:10.762Z,93.73
2023-03-25T17:20:41.282Z,93.71
2023-03-25T17:23:16.474Z,93.56
2023-03-25T17:25:50.617Z,93.54
2023-03-25T17:28:43.165Z,93.53
2023-03-25T17:31:18.995Z,93.29
2023-03-25T17:33:54.168Z,92.04
2023-03-25T17:36:21.294Z,91.60
2023-03-25T17:38:50.284Z,92.46
2023-03-25T17:41:18.278Z,91.59
2023-03-25T17:43:50.943Z,87.58
2023-03-25T17:46:23.620Z,89.73
2023-03-25T17:48:53.189Z,90.68
2023-03-25T17:51:21.082Z,92.39
2023-03-25T17:53:48.640Z,94.26
2023-03-25T17:56:19.405Z,95.92
2023-03-25T17:58:46.071Z,97.69
2023-03-25T18:01:13.648Z,98.31
2023-03-25T18:03:40.263Z,99.57
2023-03-25T18:06:07.089Z,99.21
2023-03-25T18:08:34.771Z,100.00
2023-03-25T18:11:01.552Z,100.00
2023-03-25T18:13:28.056Z,99.59
2023-03-25T18:15:55.418Z,97.77
2023-03-25T18:18:25.160Z,96.02
2023-03-25T18:20:54.515Z,94.26
2023-03-25T18:23:21.251Z,94.29
2023-03-25T18:25:47.972Z,95.27
2023-03-25T18:28:15.276Z,94.70
2023-03-25T18:30:58.354Z,94.47
2023-03-25T18:33:25.508Z,94.24
2023-03-25T18:35:52.693Z,94.03
2023-03-25T18:38:25.173Z,94.12
2023-03-25T18:40:53.483Z,93.94
2023-03-25T18:43:21.464Z,93.98
2023-03-25T18:45:48.733Z,94.13
2023-03-25T18:48:21.173Z,94.28
2023-03-25T18:50:56.048Z,94.60
2023-03-25T18:53:25.385Z,94.63
2023-03-25T18:55:53.381Z,94.76
2023-03-25T18:58:25.548Z,94.31
2023-03-25T19:00:53.942Z,94.96
2023-03-25T19:03:38.245Z,93.76
2023-03-25T19:06:11.472Z,93.64
2023-03-25T19:08:38.052Z,93.51
2023-03-25T19:11:19.212Z,93.65
2023-03-25T19:13:47.316Z,93.54
2023-03-25T19:16:13.844Z,94.89
2023-03-25T19:18:40.256Z,93.95
2023-03-25T19:21:07.056Z,94.64
2023-03-25T19:23:35.004Z,94.32
2023-03-25T19:26:01.390Z,94.27
2023-03-25T19:28:28.003Z,95.59
2023-03-25T19:30:59.093Z,94.83
2023-03-25T19:33:25.509Z,94.12
2023-03-25T19:35:55.890Z,94.94
2023-03-25T19:38:22.992Z,95.56
2023-03-25T19:40:51.535Z,94.51
2023-03-25T19:43:18.271Z,93.98
2023-03-25T19:45:45.213Z,93.67
2023-03-25T19:48:11.961Z,94.52
2023-03-25T19:50:40.663Z,94.49
2023-03-25T19:53:07.275Z,93.81
2023-03-25T19:55:34.020Z,94.46
2023-03-25T19:58:00.408Z,94.18
2023-03-25T20:00:27.836Z,94.20
2023-03-25T20:03:04.094Z,93.78
2023-03-25T20:05:32.162Z,94.06
2023-03-25T20:07:59.110Z,92.98
2023-03-25T20:10:28.217Z,92.60
2023-03-25T20:12:55.537Z,92.10
2023-03-25T20:15:24.176Z,92.32
2023-03-25T20:17:53.051Z,93.07
2023-03-25T20:20:20.505Z,93.22
2023-03-25T20:22:48.337Z,92.45
2023-03-25T20:25:15.833Z,91.89
2023-03-25T20:27:43.587Z,91.89
2023-03-25T20:30:13.313Z,92.32
2023-03-25T20:32:42.066Z,92.39
2023-03-25T20:35:12.563Z,92.06
2023-03-25T20:37:40.497Z,92.07
2023-03-25T20:40:12.117Z,92.22
2023-03-25T20:42:41.560Z,91.75
2023-03-25T20:45:10.824Z,91.41
2023-03-25T20:47:38.352Z,91.48
2023-03-25T20:50:06.394Z,91.37
2023-03-25T20:52:34.093Z,91.30
2023-03-25T20:55:00.672Z,91.13
2023-03-25T20:57:27.663Z,92.48
2023-03-25T20:59:54.368Z,92.35
2023-03-25T21:02:21.472Z,92.35
2023-03-25T21:04:48.143Z,92.46
2023-03-25T21:07:19.346Z,93.18
2023-03-25T21:09:47.268Z,92.82
2023-03-25T21:12:14.432Z,92.52
2023-03-25T21:14:41.291Z,92.68
2023-03-25T21:17:07.864Z,92.79
2023-03-25T21:19:34.865Z,92.99
2023-03-25T21:22:01.406Z,92.46
2023-03-25T21:24:27.997Z,92.10
2023-03-25T21:26:55.736Z,91.91
2023-03-25T21:29:28.653Z,92.21
2023-03-25T21:31:56.658Z,92.76
2023-03-25T21:34:26.791Z,92.00
2023-03-25T21:36:53.327Z,92.02
2023-03-25T21:39:21.129Z,92.16
2023-03-25T21:41:47.771Z,91.84
2023-03-25T21:44:16.285Z,92.56
2023-03-25T21:46:43.261Z,93.26
2023-03-25T21:49:10.146Z,94.28
2023-03-25T21:51:42.272Z,95.86
2023-03-25T21:54:09.762Z,95.67
2023-03-25T21:56:42.053Z,95.79
2023-03-25T21:59:08.888Z,96.50
2023-03-25T22:01:41.561Z,96.43
2023-03-25T22:04:08.623Z,96.95
2023-03-25T22:06:37.080Z,97.14
2023-03-25T22:09:07.940Z,96.87
2023-03-25T22:11:37.375Z,97.00
2023-03-25T22:14:05.429Z,97.37
2023-03-25T22:16:32.686Z,97.00
2023-03-25T22:18:59.384Z,97.29
2023-03-25T22:21:29.780Z,96.96
2023-03-25T22:23:58.887Z,97.30
2023-03-25T22:26:27.146Z,97.85
2023-03-25T22:28:56.530Z,97.47
2023-03-25T22:31:26.117Z,97.73
2023-03-25T22:34:03.376Z,97.86
2023-03-25T22:36:31.648Z,98.81
2023-03-25T22:38:58.181Z,99.12
2023-03-25T22:41:25.921Z,99.74
2023-03-25T22:43:52.612Z,99.72
2023-03-25T22:46:19.902Z,100.00
2023-03-25T22:48:46.493Z,100.00
2023-03-25T22:51:15.497Z,100.00
2023-03-25T22:53:42.322Z,100.00
2023-03-25T22:56:09.324Z,100.00
2023-03-25T22:58:36.166Z,100.00
2023-03-25T23:01:06.542Z,100.00
2023-03-25T23:03:33.453Z,100.00
2023-03-25T23:06:01.455Z,100.00
2023-03-25T23:08:31.677Z,100.00
2023-03-25T23:11:08.178Z,100.00
2023-03-25T23:13:38.614Z,100.00
2023-03-25T23:16:09.382Z,100.00
2023-03-25T23:18:39.535Z,100.00
2023-03-25T23:21:06.887Z,99.94
2023-03-25T23:23:33.753Z,99.06
2023-03-25T23:26:16.504Z,98.37
2023-03-25T23:28:44.543Z,97.98
2023-03-25T23:31:20.518Z,97.76
2023-03-25T23:33:53.166Z,98.08
2023-03-25T23:36:22.012Z,97.80
2023-03-25T23:38:49.675Z,97.53
2023-03-25T23:41:23.254Z,97.22
2023-03-25T23:43:52.531Z,97.48
2023-03-25T23:46:21.325Z,97.29
2023-03-25T23:48:48.966Z,97.40
2023-03-25T23:51:18.111Z,97.07
2023-03-25T23:53:46.854Z,96.81
2023-03-25T23:56:15.682Z,97.17
2023-03-25T23:58:42.168Z,97.37
